sensor_id;sensor_type;location;lat;lon;timestamp;P1;durP1;ratioP1;P2;durP2;ratioP2
70450;SDS011;58869;51.982;4.450;2023-01-08T00:02:22;3.52;;;2.84;;
70450;SDS011;58869;51.982;4.450;2023-01-08T00:04:47;3.41;;;2.82;;
70450;SDS011;58869;51.982;4.450;2023-01-08T00:07:14;3.10;;;2.65;;
70450;SDS011;58869;51.982;4.450;2023-01-08T00:09:39;3.26;;;2.87;;
70450;SDS011;58869;51.982;4.450;2023-01-08T00:12:05;2.97;;;2.67;;
70450;SDS011;58869;51.982;4.450;2023-01-08T00:14:32;3.30;;;2.98;;
70450;SDS011;58869;51.982;4.450;2023-01-08T00:16:57;3.65;;;3.30;;
70450;SDS011;58869;51.982;4.450;2023-01-08T00:19:23;3.56;;;3.26;;
70450;SDS011;58869;51.982;4.450;2023-01-08T00:21:48;3.67;;;3.35;;
70450;SDS011;58869;51.982;4.450;2023-01-08T00:24:14;3.47;;;3.22;;
70450;SDS011;58869;51.982;4.450;2023-01-08T00:26:39;3.51;;;3.31;;
70450;SDS011;58869;51.982;4.450;2023-01-08T00:29:05;3.55;;;3.37;;
70450;SDS011;58869;51.982;4.450;2023-01-08T00:31:30;3.76;;;3.52;;
70450;SDS011;58869;51.982;4.450;2023-01-08T00:33:56;3.69;;;3.45;;
70450;SDS011;58869;51.982;4.450;2023-01-08T00:36:22;3.61;;;3.38;;
70450;SDS011;58869;51.982;4.450;2023-01-08T00:38:48;3.55;;;3.34;;
70450;SDS011;58869;51.982;4.450;2023-01-08T00:41:14;3.31;;;3.16;;
70450;SDS011;58869;51.982;4.450;2023-01-08T00:43:40;3.42;;;3.26;;
70450;SDS011;58869;51.982;4.450;2023-01-08T00:46:06;3.62;;;3.41;;
70450;SDS011;58869;51.982;4.450;2023-01-08T00:48:33;3.56;;;3.34;;
70450;SDS011;58869;51.982;4.450;2023-01-08T00:51:03;4.07;;;3.68;;
70450;SDS011;58869;51.982;4.450;2023-01-08T00:53:30;4.15;;;3.69;;
70450;SDS011;58869;51.982;4.450;2023-01-08T00:55:59;4.69;;;4.07;;
70450;SDS011;58869;51.982;4.450;2023-01-08T00:58:26;4.04;;;3.62;;
70450;SDS011;58869;51.982;4.450;2023-01-08T01:00:52;4.15;;;3.73;;
70450;SDS011;58869;51.982;4.450;2023-01-08T01:03:19;4.27;;;3.75;;
70450;SDS011;58869;51.982;4.450;2023-01-08T01:05:44;4.46;;;3.91;;
70450;SDS011;58869;51.982;4.450;2023-01-08T01:08:10;4.60;;;4.04;;
70450;SDS011;58869;51.982;4.450;2023-01-08T01:10:37;4.23;;;3.70;;
70450;SDS011;58869;51.982;4.450;2023-01-08T01:13:03;4.29;;;3.82;;
70450;SDS011;58869;51.982;4.450;2023-01-08T01:15:28;4.34;;;4.04;;
70450;SDS011;58869;51.982;4.450;2023-01-08T01:17:54;4.36;;;4.17;;
70450;SDS011;58869;51.982;4.450;2023-01-08T01:20:19;4.22;;;4.04;;
70450;SDS011;58869;51.982;4.450;2023-01-08T01:22:45;4.15;;;3.99;;
70450;SDS011;58869;51.982;4.450;2023-01-08T01:25:11;3.80;;;3.59;;
70450;SDS011;58869;51.982;4.450;2023-01-08T01:27:36;3.99;;;3.85;;
70450;SDS011;58869;51.982;4.450;2023-01-08T01:30:02;3.93;;;3.75;;
70450;SDS011;58869;51.982;4.450;2023-01-08T01:32:28;3.62;;;3.40;;
70450;SDS011;58869;51.982;4.450;2023-01-08T01:34:54;3.62;;;3.32;;
70450;SDS011;58869;51.982;4.450;2023-01-08T01:37:19;3.23;;;2.96;;
70450;SDS011;58869;51.982;4.450;2023-01-08T01:39:44;2.82;;;2.61;;
70450;SDS011;58869;51.982;4.450;2023-01-08T01:42:11;2.75;;;2.52;;
70450;SDS011;58869;51.982;4.450;2023-01-08T01:44:59;2.65;;;2.47;;
70450;SDS011;58869;51.982;4.450;2023-01-08T01:47:32;2.39;;;2.19;;
70450;SDS011;58869;51.982;4.450;2023-01-08T01:52:54;2.62;;;2.36;;
70450;SDS011;58869;51.982;4.450;2023-01-08T01:55:26;2.30;;;2.11;;
70450;SDS011;58869;51.982;4.450;2023-01-08T01:58:12;2.26;;;2.10;;
70450;SDS011;58869;51.982;4.450;2023-01-08T02:00:40;2.61;;;2.37;;
70450;SDS011;58869;51.982;4.450;2023-01-08T02:03:07;2.41;;;2.20;;
70450;SDS011;58869;51.982;4.450;2023-01-08T02:05:40;2.73;;;2.45;;
70450;SDS011;58869;51.982;4.450;2023-01-08T02:11:10;2.95;;;2.65;;
70450;SDS011;58869;51.982;4.450;2023-01-08T02:13:47;2.96;;;2.62;;
70450;SDS011;58869;51.982;4.450;2023-01-08T02:16:33;2.98;;;2.66;;
70450;SDS011;58869;51.982;4.450;2023-01-08T02:19:07;3.23;;;2.86;;
70450;SDS011;58869;51.982;4.450;2023-01-08T02:24:40;3.82;;;3.52;;
70450;SDS011;58869;51.982;4.450;2023-01-08T02:27:17;3.57;;;3.30;;
70450;SDS011;58869;51.982;4.450;2023-01-08T02:29:45;3.45;;;3.17;;
70450;SDS011;58869;51.982;4.450;2023-01-08T02:32:12;3.58;;;3.22;;
70450;SDS011;58869;51.982;4.450;2023-01-08T02:34:37;3.50;;;3.10;;
70450;SDS011;58869;51.982;4.450;2023-01-08T02:37:03;3.34;;;2.97;;
70450;SDS011;58869;51.982;4.450;2023-01-08T02:43:05;3.10;;;2.63;;
70450;SDS011;58869;51.982;4.450;2023-01-08T02:47:54;2.94;;;2.42;;
70450;SDS011;58869;51.982;4.450;2023-01-08T02:50:31;3.56;;;2.81;;
70450;SDS011;58869;51.982;4.450;2023-01-08T02:53:27;3.16;;;2.47;;
70450;SDS011;58869;51.982;4.450;2023-01-08T02:55:58;3.47;;;2.72;;
70450;SDS011;58869;51.982;4.450;2023-01-08T02:58:28;3.46;;;2.66;;
70450;SDS011;58869;51.982;4.450;2023-01-08T03:00:56;3.53;;;2.63;;
70450;SDS011;58869;51.982;4.450;2023-01-08T03:03:28;3.46;;;2.56;;
70450;SDS011;58869;51.982;4.450;2023-01-08T03:05:59;3.89;;;2.84;;
70450;SDS011;58869;51.982;4.450;2023-01-08T03:08:29;4.32;;;3.09;;
70450;SDS011;58869;51.982;4.450;2023-01-08T03:11:04;4.29;;;2.97;;
70450;SDS011;58869;51.982;4.450;2023-01-08T03:19:32;4.74;;;3.16;;
70450;SDS011;58869;51.982;4.450;2023-01-08T03:22:09;5.37;;;3.59;;
70450;SDS011;58869;51.982;4.450;2023-01-08T03:24:37;4.64;;;3.06;;
70450;SDS011;58869;51.982;4.450;2023-01-08T03:27:07;4.59;;;3.12;;
70450;SDS011;58869;51.982;4.450;2023-01-08T03:29:37;4.13;;;2.79;;
70450;SDS011;58869;51.982;4.450;2023-01-08T03:32:05;5.00;;;3.32;;
70450;SDS011;58869;51.982;4.450;2023-01-08T03:34:35;5.11;;;3.36;;
70450;SDS011;58869;51.982;4.450;2023-01-08T03:37:03;5.79;;;3.75;;
70450;SDS011;58869;51.982;4.450;2023-01-08T03:42:23;5.14;;;3.37;;
70450;SDS011;58869;51.982;4.450;2023-01-08T03:44:50;5.31;;;3.50;;
70450;SDS011;58869;51.982;4.450;2023-01-08T03:47:15;5.89;;;3.89;;
70450;SDS011;58869;51.982;4.450;2023-01-08T03:49:45;5.14;;;3.39;;
70450;SDS011;58869;51.982;4.450;2023-01-08T03:54:51;4.81;;;3.21;;
70450;SDS011;58869;51.982;4.450;2023-01-08T03:57:16;5.32;;;3.57;;
70450;SDS011;58869;51.982;4.450;2023-01-08T03:59:42;5.10;;;3.43;;
70450;SDS011;58869;51.982;4.450;2023-01-08T04:02:08;5.14;;;3.46;;
70450;SDS011;58869;51.982;4.450;2023-01-08T04:04:33;4.98;;;3.39;;
70450;SDS011;58869;51.982;4.450;2023-01-08T04:06:59;5.00;;;3.38;;
70450;SDS011;58869;51.982;4.450;2023-01-08T04:09:24;4.59;;;3.12;;
70450;SDS011;58869;51.982;4.450;2023-01-08T04:11:50;4.62;;;3.14;;
70450;SDS011;58869;51.982;4.450;2023-01-08T04:14:15;4.60;;;3.11;;
70450;SDS011;58869;51.982;4.450;2023-01-08T04:16:43;4.41;;;2.99;;
70450;SDS011;58869;51.982;4.450;2023-01-08T04:19:09;4.45;;;2.98;;
70450;SDS011;58869;51.982;4.450;2023-01-08T04:21:35;4.45;;;3.01;;
70450;SDS011;58869;51.982;4.450;2023-01-08T04:24:01;4.93;;;3.35;;
70450;SDS011;58869;51.982;4.450;2023-01-08T04:26:26;4.89;;;3.32;;
70450;SDS011;58869;51.982;4.450;2023-01-08T04:28:52;4.03;;;2.76;;
70450;SDS011;58869;51.982;4.450;2023-01-08T04:31:21;4.16;;;2.86;;
70450;SDS011;58869;51.982;4.450;2023-01-08T04:33:46;4.35;;;2.98;;
70450;SDS011;58869;51.982;4.450;2023-01-08T04:36:13;4.63;;;3.18;;
70450;SDS011;58869;51.982;4.450;2023-01-08T04:38:39;4.24;;;2.98;;
70450;SDS011;58869;51.982;4.450;2023-01-08T04:41:05;3.86;;;2.82;;
70450;SDS011;58869;51.982;4.450;2023-01-08T04:43:32;3.67;;;2.77;;
70450;SDS011;58869;51.982;4.450;2023-01-08T04:46:02;3.84;;;2.96;;
70450;SDS011;58869;51.982;4.450;2023-01-08T04:48:29;4.09;;;3.18;;
70450;SDS011;58869;51.982;4.450;2023-01-08T04:50:58;3.89;;;3.13;;
70450;SDS011;58869;51.982;4.450;2023-01-08T04:53:25;3.74;;;3.05;;
70450;SDS011;58869;51.982;4.450;2023-01-08T04:55:53;3.63;;;3.08;;
70450;SDS011;58869;51.982;4.450;2023-01-08T04:58:19;3.10;;;2.70;;
70450;SDS011;58869;51.982;4.450;2023-01-08T05:00:46;3.35;;;2.99;;
70450;SDS011;58869;51.982;4.450;2023-01-08T05:03:11;3.25;;;2.89;;
70450;SDS011;58869;51.982;4.450;2023-01-08T05:05:37;3.41;;;3.01;;
70450;SDS011;58869;51.982;4.450;2023-01-08T05:08:02;3.68;;;3.13;;
70450;SDS011;58869;51.982;4.450;2023-01-08T05:10:28;4.12;;;3.39;;
70450;SDS011;58869;51.982;4.450;2023-01-08T05:12:58;3.92;;;3.22;;
70450;SDS011;58869;51.982;4.450;2023-01-08T05:15:24;3.90;;;3.22;;
70450;SDS011;58869;51.982;4.450;2023-01-08T05:17:56;4.15;;;3.38;;
70450;SDS011;58869;51.982;4.450;2023-01-08T05:20:22;4.48;;;3.62;;
70450;SDS011;58869;51.982;4.450;2023-01-08T05:22:51;4.05;;;3.32;;
70450;SDS011;58869;51.982;4.450;2023-01-08T05:25:16;3.65;;;3.01;;
70450;SDS011;58869;51.982;4.450;2023-01-08T05:27:43;3.62;;;3.00;;
70450;SDS011;58869;51.982;4.450;2023-01-08T05:30:09;3.52;;;3.01;;
70450;SDS011;58869;51.982;4.450;2023-01-08T05:32:36;3.78;;;3.20;;
70450;SDS011;58869;51.982;4.450;2023-01-08T05:35:01;3.99;;;3.31;;
70450;SDS011;58869;51.982;4.450;2023-01-08T05:37:27;3.90;;;3.23;;
70450;SDS011;58869;51.982;4.450;2023-01-08T05:39:53;3.87;;;3.17;;
70450;SDS011;58869;51.982;4.450;2023-01-08T05:42:18;4.38;;;3.54;;
70450;SDS011;58869;51.982;4.450;2023-01-08T05:44:43;4.40;;;3.43;;
70450;SDS011;58869;51.982;4.450;2023-01-08T05:47:09;4.90;;;3.69;;
70450;SDS011;58869;51.982;4.450;2023-01-08T05:49:36;5.20;;;3.95;;
70450;SDS011;58869;51.982;4.450;2023-01-08T05:52:01;4.76;;;3.60;;
70450;SDS011;58869;51.982;4.450;2023-01-08T05:54:26;5.21;;;3.90;;
70450;SDS011;58869;51.982;4.450;2023-01-08T05:56:52;5.05;;;3.75;;
70450;SDS011;58869;51.982;4.450;2023-01-08T05:59:17;5.20;;;3.95;;
70450;SDS011;58869;51.982;4.450;2023-01-08T06:01:43;5.25;;;4.03;;
70450;SDS011;58869;51.982;4.450;2023-01-08T06:04:08;5.40;;;4.17;;
70450;SDS011;58869;51.982;4.450;2023-01-08T06:06:36;4.82;;;3.81;;
70450;SDS011;58869;51.982;4.450;2023-01-08T06:09:03;5.34;;;4.23;;
70450;SDS011;58869;51.982;4.450;2023-01-08T06:11:28;5.44;;;4.18;;
70450;SDS011;58869;51.982;4.450;2023-01-08T06:13:54;5.04;;;3.90;;
70450;SDS011;58869;51.982;4.450;2023-01-08T06:16:19;4.86;;;3.85;;
70450;SDS011;58869;51.982;4.450;2023-01-08T06:18:45;4.45;;;3.62;;
70450;SDS011;58869;51.982;4.450;2023-01-08T06:21:11;4.40;;;3.64;;
70450;SDS011;58869;51.982;4.450;2023-01-08T06:23:37;4.68;;;3.83;;
70450;SDS011;58869;51.982;4.450;2023-01-08T06:26:04;4.26;;;3.55;;
70450;SDS011;58869;51.982;4.450;2023-01-08T06:28:30;4.25;;;3.53;;
70450;SDS011;58869;51.982;4.450;2023-01-08T06:30:57;4.66;;;3.75;;
70450;SDS011;58869;51.982;4.450;2023-01-08T06:33:23;4.60;;;3.69;;
70450;SDS011;58869;51.982;4.450;2023-01-08T06:35:49;4.35;;;3.48;;
70450;SDS011;58869;51.982;4.450;2023-01-08T06:38:14;4.72;;;3.82;;
70450;SDS011;58869;51.982;4.450;2023-01-08T06:40:43;4.47;;;3.61;;
70450;SDS011;58869;51.982;4.450;2023-01-08T06:43:09;4.31;;;3.50;;
70450;SDS011;58869;51.982;4.450;2023-01-08T06:45:34;4.11;;;3.35;;
70450;SDS011;58869;51.982;4.450;2023-01-08T06:48:00;4.28;;;3.46;;
70450;SDS011;58869;51.982;4.450;2023-01-08T06:50:27;4.07;;;3.28;;
70450;SDS011;58869;51.982;4.450;2023-01-08T06:52:53;4.16;;;3.35;;
70450;SDS011;58869;51.982;4.450;2023-01-08T06:55:20;3.96;;;3.18;;
70450;SDS011;58869;51.982;4.450;2023-01-08T06:57:47;3.68;;;3.03;;
70450;SDS011;58869;51.982;4.450;2023-01-08T07:00:12;3.77;;;3.03;;
70450;SDS011;58869;51.982;4.450;2023-01-08T07:02:38;4.63;;;3.56;;
70450;SDS011;58869;51.982;4.450;2023-01-08T07:05:04;4.73;;;3.53;;
70450;SDS011;58869;51.982;4.450;2023-01-08T07:07:29;4.76;;;3.60;;
70450;SDS011;58869;51.982;4.450;2023-01-08T07:09:55;4.33;;;3.31;;
70450;SDS011;58869;51.982;4.450;2023-01-08T07:12:21;4.23;;;3.26;;
70450;SDS011;58869;51.982;4.450;2023-01-08T07:14:47;4.19;;;3.20;;
70450;SDS011;58869;51.982;4.450;2023-01-08T07:17:12;4.55;;;3.45;;
70450;SDS011;58869;51.982;4.450;2023-01-08T07:19:38;4.67;;;3.45;;
70450;SDS011;58869;51.982;4.450;2023-01-08T07:22:03;4.78;;;3.49;;
70450;SDS011;58869;51.982;4.450;2023-01-08T07:24:32;4.31;;;3.18;;
70450;SDS011;58869;51.982;4.450;2023-01-08T07:26:57;4.75;;;3.44;;
70450;SDS011;58869;51.982;4.450;2023-01-08T07:29:22;4.63;;;3.35;;
70450;SDS011;58869;51.982;4.450;2023-01-08T07:31:48;5.13;;;3.63;;
70450;SDS011;58869;51.982;4.450;2023-01-08T07:34:13;4.44;;;3.20;;
70450;SDS011;58869;51.982;4.450;2023-01-08T07:36:39;4.69;;;3.35;;
70450;SDS011;58869;51.982;4.450;2023-01-08T07:39:04;4.61;;;3.26;;
70450;SDS011;58869;51.982;4.450;2023-01-08T07:41:30;5.43;;;3.68;;
70450;SDS011;58869;51.982;4.450;2023-01-08T07:43:55;5.38;;;3.64;;
70450;SDS011;58869;51.982;4.450;2023-01-08T07:46:21;5.73;;;3.79;;
70450;SDS011;58869;51.982;4.450;2023-01-08T07:48:47;6.32;;;4.14;;
70450;SDS011;58869;51.982;4.450;2023-01-08T07:51:12;5.63;;;3.79;;
70450;SDS011;58869;51.982;4.450;2023-01-08T07:53:38;6.18;;;4.12;;
70450;SDS011;58869;51.982;4.450;2023-01-08T07:56:04;5.87;;;3.88;;
70450;SDS011;58869;51.982;4.450;2023-01-08T07:58:31;5.84;;;3.87;;
70450;SDS011;58869;51.982;4.450;2023-01-08T08:00:57;6.60;;;4.38;;
70450;SDS011;58869;51.982;4.450;2023-01-08T08:03:23;6.38;;;4.23;;
70450;SDS011;58869;51.982;4.450;2023-01-08T08:05:49;6.10;;;4.07;;
70450;SDS011;58869;51.982;4.450;2023-01-08T08:08:15;5.83;;;3.96;;
70450;SDS011;58869;51.982;4.450;2023-01-08T08:10:41;5.21;;;3.62;;
70450;SDS011;58869;51.982;4.450;2023-01-08T08:13:07;5.36;;;3.63;;
70450;SDS011;58869;51.982;4.450;2023-01-08T08:15:33;5.64;;;3.75;;
70450;SDS011;58869;51.982;4.450;2023-01-08T08:18:00;5.65;;;3.80;;
70450;SDS011;58869;51.982;4.450;2023-01-08T08:20:25;5.56;;;3.71;;
70450;SDS011;58869;51.982;4.450;2023-01-08T08:22:51;6.10;;;3.99;;
70450;SDS011;58869;51.982;4.450;2023-01-08T08:25:17;6.64;;;4.34;;
70450;SDS011;58869;51.982;4.450;2023-01-08T08:27:43;6.50;;;4.27;;
70450;SDS011;58869;51.982;4.450;2023-01-08T08:30:09;6.32;;;4.16;;
70450;SDS011;58869;51.982;4.450;2023-01-08T08:32:36;6.33;;;4.17;;
70450;SDS011;58869;51.982;4.450;2023-01-08T08:35:02;5.75;;;3.76;;
70450;SDS011;58869;51.982;4.450;2023-01-08T08:37:28;6.06;;;3.95;;
70450;SDS011;58869;51.982;4.450;2023-01-08T08:39:54;6.14;;;4.08;;
70450;SDS011;58869;51.982;4.450;2023-01-08T08:42:20;5.92;;;3.91;;
70450;SDS011;58869;51.982;4.450;2023-01-08T08:44:45;6.61;;;4.29;;
70450;SDS011;58869;51.982;4.450;2023-01-08T08:47:11;6.63;;;4.34;;
70450;SDS011;58869;51.982;4.450;2023-01-08T08:49:36;6.14;;;4.05;;
70450;SDS011;58869;51.982;4.450;2023-01-08T08:52:02;6.17;;;4.07;;
70450;SDS011;58869;51.982;4.450;2023-01-08T08:54:28;5.93;;;3.93;;
70450;SDS011;58869;51.982;4.450;2023-01-08T08:56:54;5.93;;;3.93;;
70450;SDS011;58869;51.982;4.450;2023-01-08T08:59:19;6.48;;;4.31;;
70450;SDS011;58869;51.982;4.450;2023-01-08T09:01:45;6.26;;;4.09;;
70450;SDS011;58869;51.982;4.450;2023-01-08T09:04:10;6.16;;;4.00;;
70450;SDS011;58869;51.982;4.450;2023-01-08T09:06:36;5.91;;;3.92;;
70450;SDS011;58869;51.982;4.450;2023-01-08T09:09:01;5.64;;;3.86;;
70450;SDS011;58869;51.982;4.450;2023-01-08T09:11:27;5.96;;;4.00;;
70450;SDS011;58869;51.982;4.450;2023-01-08T09:13:56;5.83;;;3.86;;
70450;SDS011;58869;51.982;4.450;2023-01-08T09:16:21;6.34;;;4.17;;
70450;SDS011;58869;51.982;4.450;2023-01-08T09:18:47;6.53;;;4.24;;
70450;SDS011;58869;51.982;4.450;2023-01-08T09:21:13;6.99;;;4.50;;
70450;SDS011;58869;51.982;4.450;2023-01-08T09:23:39;6.51;;;4.27;;
70450;SDS011;58869;51.982;4.450;2023-01-08T09:26:05;6.59;;;4.31;;
70450;SDS011;58869;51.982;4.450;2023-01-08T09:28:31;5.60;;;3.63;;
70450;SDS011;58869;51.982;4.450;2023-01-08T09:30:59;6.24;;;4.03;;
70450;SDS011;58869;51.982;4.450;2023-01-08T09:33:26;6.81;;;4.44;;
70450;SDS011;58869;51.982;4.450;2023-01-08T09:35:52;6.56;;;4.32;;
70450;SDS011;58869;51.982;4.450;2023-01-08T09:38:19;5.94;;;4.02;;
70450;SDS011;58869;51.982;4.450;2023-01-08T09:40:57;5.37;;;3.75;;
70450;SDS011;58869;51.982;4.450;2023-01-08T09:43:26;5.90;;;4.00;;
70450;SDS011;58869;51.982;4.450;2023-01-08T09:45:57;6.10;;;4.13;;
70450;SDS011;58869;51.982;4.450;2023-01-08T09:48:27;5.40;;;3.64;;
70450;SDS011;58869;51.982;4.450;2023-01-08T09:50:55;6.55;;;4.31;;
70450;SDS011;58869;51.982;4.450;2023-01-08T09:53:21;6.50;;;4.22;;
70450;SDS011;58869;51.982;4.450;2023-01-08T09:55:55;6.20;;;4.17;;
70450;SDS011;58869;51.982;4.450;2023-01-08T10:01:14;6.48;;;4.55;;
70450;SDS011;58869;51.982;4.450;2023-01-08T10:03:48;6.16;;;4.53;;
70450;SDS011;58869;51.982;4.450;2023-01-08T10:06:24;5.31;;;3.97;;
70450;SDS011;58869;51.982;4.450;2023-01-08T10:08:50;5.17;;;3.93;;
70450;SDS011;58869;51.982;4.450;2023-01-08T10:11:16;4.62;;;3.50;;
70450;SDS011;58869;51.982;4.450;2023-01-08T10:13:45;4.95;;;3.65;;
70450;SDS011;58869;51.982;4.450;2023-01-08T10:16:26;5.05;;;3.62;;
70450;SDS011;58869;51.982;4.450;2023-01-08T10:18:54;4.90;;;3.59;;
70450;SDS011;58869;51.982;4.450;2023-01-08T10:21:29;5.52;;;4.07;;
70450;SDS011;58869;51.982;4.450;2023-01-08T10:24:00;4.51;;;3.33;;
70450;SDS011;58869;51.982;4.450;2023-01-08T10:26:27;4.92;;;3.66;;
70450;SDS011;58869;51.982;4.450;2023-01-08T10:31:52;4.95;;;3.68;;
70450;SDS011;58869;51.982;4.450;2023-01-08T10:34:42;4.83;;;3.68;;
70450;SDS011;58869;51.982;4.450;2023-01-08T10:37:29;4.69;;;3.52;;
70450;SDS011;58869;51.982;4.450;2023-01-08T10:45:58;4.31;;;3.27;;
70450;SDS011;58869;51.982;4.450;2023-01-08T10:48:29;4.32;;;3.30;;
70450;SDS011;58869;51.982;4.450;2023-01-08T10:53:40;4.22;;;3.23;;
70450;SDS011;58869;51.982;4.450;2023-01-08T10:56:06;4.18;;;3.18;;
70450;SDS011;58869;51.982;4.450;2023-01-08T10:58:52;4.29;;;3.24;;
70450;SDS011;58869;51.982;4.450;2023-01-08T11:01:25;3.73;;;2.88;;
70450;SDS011;58869;51.982;4.450;2023-01-08T11:04:02;4.01;;;3.12;;
70450;SDS011;58869;51.982;4.450;2023-01-08T11:06:33;3.23;;;2.55;;
70450;SDS011;58869;51.982;4.450;2023-01-08T11:09:18;3.04;;;2.43;;
70450;SDS011;58869;51.982;4.450;2023-01-08T11:11:47;3.20;;;2.55;;
70450;SDS011;58869;51.982;4.450;2023-01-08T11:14:25;3.55;;;2.82;;
70450;SDS011;58869;51.982;4.450;2023-01-08T11:16:58;3.34;;;2.64;;
70450;SDS011;58869;51.982;4.450;2023-01-08T11:19:30;3.38;;;2.67;;
70450;SDS011;58869;51.982;4.450;2023-01-08T11:22:04;3.61;;;2.87;;
70450;SDS011;58869;51.982;4.450;2023-01-08T11:24:35;3.61;;;2.90;;
70450;SDS011;58869;51.982;4.450;2023-01-08T11:32:32;3.40;;;2.87;;
70450;SDS011;58869;51.982;4.450;2023-01-08T11:35:16;3.69;;;3.21;;
70450;SDS011;58869;51.982;4.450;2023-01-08T11:37:56;3.39;;;3.01;;
70450;SDS011;58869;51.982;4.450;2023-01-08T11:52:03;2.83;;;2.59;;
70450;SDS011;58869;51.982;4.450;2023-01-08T12:02:53;3.12;;;2.89;;
70450;SDS011;58869;51.982;4.450;2023-01-08T12:05:24;2.99;;;2.81;;
70450;SDS011;58869;51.982;4.450;2023-01-08T12:08:22;2.76;;;2.62;;
70450;SDS011;58869;51.982;4.450;2023-01-08T12:11:24;3.00;;;2.78;;
70450;SDS011;58869;51.982;4.450;2023-01-08T12:16:28;2.79;;;2.53;;
70450;SDS011;58869;51.982;4.450;2023-01-08T12:32:50;3.17;;;2.64;;
70450;SDS011;58869;51.982;4.450;2023-01-08T12:35:29;3.38;;;2.78;;
70450;SDS011;58869;51.982;4.450;2023-01-08T12:40:39;3.05;;;2.64;;
70450;SDS011;58869;51.982;4.450;2023-01-08T12:43:13;3.11;;;2.67;;
70450;SDS011;58869;51.982;4.450;2023-01-08T12:45:43;2.98;;;2.61;;
70450;SDS011;58869;51.982;4.450;2023-01-08T12:48:17;2.96;;;2.60;;
70450;SDS011;58869;51.982;4.450;2023-01-08T12:56:25;3.04;;;2.69;;
70450;SDS011;58869;51.982;4.450;2023-01-08T12:59:37;2.78;;;2.42;;
70450;SDS011;58869;51.982;4.450;2023-01-08T13:05:12;3.07;;;2.59;;
70450;SDS011;58869;51.982;4.450;2023-01-08T13:07:59;3.91;;;3.19;;
70450;SDS011;58869;51.982;4.450;2023-01-08T13:13:04;3.25;;;2.58;;
70450;SDS011;58869;51.982;4.450;2023-01-08T13:15:31;3.20;;;2.51;;
70450;SDS011;58869;51.982;4.450;2023-01-08T13:18:06;3.48;;;2.64;;
70450;SDS011;58869;51.982;4.450;2023-01-08T13:20:40;3.94;;;2.91;;
70450;SDS011;58869;51.982;4.450;2023-01-08T13:23:06;3.52;;;2.57;;
70450;SDS011;58869;51.982;4.450;2023-01-08T13:25:35;3.09;;;2.26;;
70450;SDS011;58869;51.982;4.450;2023-01-08T13:30:51;3.57;;;2.52;;
70450;SDS011;58869;51.982;4.450;2023-01-08T13:36:33;3.83;;;2.71;;
70450;SDS011;58869;51.982;4.450;2023-01-08T13:38:59;3.76;;;2.67;;
70450;SDS011;58869;51.982;4.450;2023-01-08T13:41:32;4.07;;;2.89;;
70450;SDS011;58869;51.982;4.450;2023-01-08T13:46:30;3.94;;;2.76;;
70450;SDS011;58869;51.982;4.450;2023-01-08T13:51:58;4.38;;;3.06;;
70450;SDS011;58869;51.982;4.450;2023-01-08T13:54:44;3.88;;;2.76;;
70450;SDS011;58869;51.982;4.450;2023-01-08T13:57:11;3.84;;;2.78;;
70450;SDS011;58869;51.982;4.450;2023-01-08T13:59:42;3.99;;;3.00;;
70450;SDS011;58869;51.982;4.450;2023-01-08T14:02:33;4.20;;;3.28;;
70450;SDS011;58869;51.982;4.450;2023-01-08T14:05:17;3.56;;;2.83;;
70450;SDS011;58869;51.982;4.450;2023-01-08T14:07:45;3.48;;;2.86;;
70450;SDS011;58869;51.982;4.450;2023-01-08T14:10:12;3.75;;;3.18;;
70450;SDS011;58869;51.982;4.450;2023-01-08T14:12:39;3.87;;;3.48;;
70450;SDS011;58869;51.982;4.450;2023-01-08T14:15:09;3.28;;;3.01;;
70450;SDS011;58869;51.982;4.450;2023-01-08T14:17:43;3.18;;;2.97;;
70450;SDS011;58869;51.982;4.450;2023-01-08T14:20:11;3.37;;;3.15;;
70450;SDS011;58869;51.982;4.450;2023-01-08T14:22:39;3.17;;;2.94;;
70450;SDS011;58869;51.982;4.450;2023-01-08T14:25:06;3.43;;;3.17;;
70450;SDS011;58869;51.982;4.450;2023-01-08T14:27:33;3.65;;;3.33;;
70450;SDS011;58869;51.982;4.450;2023-01-08T14:29:59;3.61;;;3.29;;
70450;SDS011;58869;51.982;4.450;2023-01-08T14:32:27;3.20;;;2.95;;
70450;SDS011;58869;51.982;4.450;2023-01-08T14:34:54;3.33;;;3.10;;
70450;SDS011;58869;51.982;4.450;2023-01-08T14:37:22;3.22;;;2.99;;
70450;SDS011;58869;51.982;4.450;2023-01-08T14:39:48;3.37;;;3.08;;
70450;SDS011;58869;51.982;4.450;2023-01-08T14:42:22;3.55;;;3.22;;
70450;SDS011;58869;51.982;4.450;2023-01-08T14:45:19;3.08;;;2.77;;
70450;SDS011;58869;51.982;4.450;2023-01-08T14:47:48;3.41;;;2.99;;
70450;SDS011;58869;51.982;4.450;2023-01-08T14:50:19;3.18;;;2.76;;
70450;SDS011;58869;51.982;4.450;2023-01-08T14:52:52;3.26;;;2.82;;
70450;SDS011;58869;51.982;4.450;2023-01-08T14:55:24;3.66;;;3.03;;
70450;SDS011;58869;51.982;4.450;2023-01-08T14:57:53;3.09;;;2.58;;
70450;SDS011;58869;51.982;4.450;2023-01-08T15:00:24;2.96;;;2.51;;
70450;SDS011;58869;51.982;4.450;2023-01-08T15:02:53;3.32;;;2.75;;
70450;SDS011;58869;51.982;4.450;2023-01-08T15:05:26;3.34;;;2.68;;
70450;SDS011;58869;51.982;4.450;2023-01-08T15:07:57;3.16;;;2.56;;
70450;SDS011;58869;51.982;4.450;2023-01-08T15:10:31;3.69;;;2.93;;
70450;SDS011;58869;51.982;4.450;2023-01-08T15:13:02;3.43;;;2.73;;
70450;SDS011;58869;51.982;4.450;2023-01-08T15:15:31;3.78;;;2.94;;
70450;SDS011;58869;51.982;4.450;2023-01-08T15:17:59;3.54;;;2.75;;
70450;SDS011;58869;51.982;4.450;2023-01-08T15:20:29;3.72;;;2.90;;
70450;SDS011;58869;51.982;4.450;2023-01-08T15:22:56;3.70;;;2.86;;
70450;SDS011;58869;51.982;4.450;2023-01-08T15:25:24;3.69;;;2.85;;
70450;SDS011;58869;51.982;4.450;2023-01-08T15:27:53;3.41;;;2.65;;
70450;SDS011;58869;51.982;4.450;2023-01-08T15:30:32;3.70;;;2.91;;
70450;SDS011;58869;51.982;4.450;2023-01-08T15:33:07;3.61;;;2.92;;
70450;SDS011;58869;51.982;4.450;2023-01-08T15:35:53;3.32;;;2.67;;
70450;SDS011;58869;51.982;4.450;2023-01-08T15:38:19;3.20;;;2.58;;
70450;SDS011;58869;51.982;4.450;2023-01-08T15:40:46;3.29;;;2.62;;
70450;SDS011;58869;51.982;4.450;2023-01-08T15:43:13;3.48;;;2.71;;
70450;SDS011;58869;51.982;4.450;2023-01-08T15:45:42;3.54;;;2.70;;
70450;SDS011;58869;51.982;4.450;2023-01-08T15:48:09;3.23;;;2.48;;
70450;SDS011;58869;51.982;4.450;2023-01-08T15:50:41;3.22;;;2.51;;
70450;SDS011;58869;51.982;4.450;2023-01-08T15:53:14;3.45;;;2.70;;
70450;SDS011;58869;51.982;4.450;2023-01-08T15:55:44;3.74;;;2.86;;
70450;SDS011;58869;51.982;4.450;2023-01-08T15:58:11;3.84;;;2.85;;
70450;SDS011;58869;51.982;4.450;2023-01-08T16:00:38;3.37;;;2.54;;
70450;SDS011;58869;51.982;4.450;2023-01-08T16:03:04;3.86;;;2.93;;
70450;SDS011;58869;51.982;4.450;2023-01-08T16:05:31;3.96;;;2.99;;
70450;SDS011;58869;51.982;4.450;2023-01-08T16:07:56;3.54;;;2.65;;
70450;SDS011;58869;51.982;4.450;2023-01-08T16:10:22;3.75;;;2.84;;
70450;SDS011;58869;51.982;4.450;2023-01-08T16:12:50;3.53;;;2.70;;
70450;SDS011;58869;51.982;4.450;2023-01-08T16:15:16;3.19;;;2.46;;
70450;SDS011;58869;51.982;4.450;2023-01-08T16:17:41;3.81;;;2.97;;
70450;SDS011;58869;51.982;4.450;2023-01-08T16:20:08;3.36;;;2.59;;
70450;SDS011;58869;51.982;4.450;2023-01-08T16:22:34;3.85;;;2.91;;
70450;SDS011;58869;51.982;4.450;2023-01-08T16:25:01;3.65;;;2.72;;
70450;SDS011;58869;51.982;4.450;2023-01-08T16:27:28;3.52;;;2.62;;
70450;SDS011;58869;51.982;4.450;2023-01-08T16:29:55;4.10;;;3.03;;
70450;SDS011;58869;51.982;4.450;2023-01-08T16:32:20;3.97;;;2.95;;
70450;SDS011;58869;51.982;4.450;2023-01-08T16:34:46;4.18;;;3.16;;
70450;SDS011;58869;51.982;4.450;2023-01-08T16:37:14;4.05;;;3.11;;
70450;SDS011;58869;51.982;4.450;2023-01-08T16:39:39;3.93;;;3.01;;
70450;SDS011;58869;51.982;4.450;2023-01-08T16:42:05;3.84;;;2.92;;
70450;SDS011;58869;51.982;4.450;2023-01-08T16:44:30;4.53;;;3.41;;
70450;SDS011;58869;51.982;4.450;2023-01-08T16:46:58;4.02;;;3.10;;